sensor_id;sensor_type;location;lat;lon;timestamp;P1;durP1;ratioP1;P2;durP2;ratioP2
40993;SDS011;26722;43.212;27.932;2023-07-30T00:01:26;9.85;;;3.22;;
40993;SDS011;26722;43.212;27.932;2023-07-30T00:03:52;6.20;;;3.03;;
40993;SDS011;26722;43.212;27.932;2023-07-30T00:06:17;11.73;;;3.15;;
40993;SDS011;26722;43.212;27.932;2023-07-30T00:08:42;9.43;;;3.28;;
40993;SDS011;26722;43.212;27.932;2023-07-30T00:11:08;5.22;;;2.97;;
40993;SDS011;26722;43.212;27.932;2023-07-30T00:13:33;8.30;;;2.90;;
40993;SDS011;26722;43.212;27.932;2023-07-30T00:15:59;5.30;;;2.53;;
40993;SDS011;26722;43.212;27.932;2023-07-30T00:18:24;6.97;;;2.60;;
40993;SDS011;26722;43.212;27.932;2023-07-30T00:20:49;8.35;;;3.00;;
40993;SDS011;26722;43.212;27.932;2023-07-30T00:23:15;7.10;;;3.10;;
40993;SDS011;26722;43.212;27.932;2023-07-30T00:25:40;7.35;;;2.80;;
40993;SDS011;26722;43.212;27.932;2023-07-30T00:28:06;6.63;;;3.10;;
40993;SDS011;26722;43.212;27.932;2023-07-30T00:30:31;5.43;;;2.83;;
40993;SDS011;26722;43.212;27.932;2023-07-30T00:32:57;4.45;;;2.97;;
40993;SDS011;26722;43.212;27.932;2023-07-30T00:35:22;5.22;;;2.70;;
40993;SDS011;26722;43.212;27.932;2023-07-30T00:37:47;5.20;;;3.00;;
40993;SDS011;26722;43.212;27.932;2023-07-30T00:40:13;8.15;;;2.88;;
40993;SDS011;26722;43.212;27.932;2023-07-30T00:42:38;6.90;;;2.78;;
40993;SDS011;26722;43.212;27.932;2023-07-30T00:45:04;12.18;;;2.92;;
40993;SDS011;26722;43.212;27.932;2023-07-30T00:47:30;9.70;;;3.05;;
40993;SDS011;26722;43.212;27.932;2023-07-30T00:49:56;5.95;;;3.00;;
40993;SDS011;26722;43.212;27.932;2023-07-30T00:52:22;5.93;;;2.72;;
40993;SDS011;26722;43.212;27.932;2023-07-30T00:54:48;7.35;;;3.40;;
40993;SDS011;26722;43.212;27.932;2023-07-30T00:57:15;4.28;;;2.80;;
40993;SDS011;26722;43.212;27.932;2023-07-30T00:59:43;6.80;;;3.75;;
40993;SDS011;26722;43.212;27.932;2023-07-30T01:02:08;5.30;;;2.95;;
40993;SDS011;26722;43.212;27.932;2023-07-30T01:04:34;8.30;;;3.15;;
40993;SDS011;26722;43.212;27.932;2023-07-30T01:07:02;5.57;;;2.72;;
40993;SDS011;26722;43.212;27.932;2023-07-30T01:09:28;5.20;;;2.83;;
40993;SDS011;26722;43.212;27.932;2023-07-30T01:11:53;6.13;;;3.05;;
40993;SDS011;26722;43.212;27.932;2023-07-30T01:14:20;13.32;;;3.20;;
40993;SDS011;26722;43.212;27.932;2023-07-30T01:16:48;5.15;;;3.38;;
40993;SDS011;26722;43.212;27.932;2023-07-30T01:19:14;5.75;;;3.10;;
40993;SDS011;26722;43.212;27.932;2023-07-30T01:21:39;5.72;;;2.67;;
40993;SDS011;26722;43.212;27.932;2023-07-30T01:24:05;5.68;;;3.00;;
40993;SDS011;26722;43.212;27.932;2023-07-30T01:26:32;5.97;;;3.25;;
40993;SDS011;26722;43.212;27.932;2023-07-30T01:29:03;4.72;;;2.85;;
40993;SDS011;26722;43.212;27.932;2023-07-30T01:31:34;6.63;;;2.63;;
40993;SDS011;26722;43.212;27.932;2023-07-30T01:34:02;8.65;;;3.30;;
40993;SDS011;26722;43.212;27.932;2023-07-30T01:36:29;6.07;;;2.92;;
40993;SDS011;26722;43.212;27.932;2023-07-30T01:38:55;7.38;;;3.33;;
40993;SDS011;26722;43.212;27.932;2023-07-30T01:41:22;6.57;;;3.03;;
40993;SDS011;26722;43.212;27.932;2023-07-30T01:43:49;7.03;;;3.30;;
40993;SDS011;26722;43.212;27.932;2023-07-30T01:46:15;8.63;;;3.00;;
40993;SDS011;26722;43.212;27.932;2023-07-30T01:48:40;11.10;;;3.50;;
40993;SDS011;26722;43.212;27.932;2023-07-30T01:51:06;7.85;;;3.08;;
40993;SDS011;26722;43.212;27.932;2023-07-30T01:53:31;8.38;;;3.42;;
40993;SDS011;26722;43.212;27.932;2023-07-30T01:55:56;6.03;;;3.08;;
40993;SDS011;26722;43.212;27.932;2023-07-30T01:58:22;6.78;;;3.15;;
40993;SDS011;26722;43.212;27.932;2023-07-30T02:00:47;6.50;;;2.85;;
40993;SDS011;26722;43.212;27.932;2023-07-30T02:03:13;5.03;;;3.08;;
40993;SDS011;26722;43.212;27.932;2023-07-30T02:05:38;7.20;;;3.17;;
40993;SDS011;26722;43.212;27.932;2023-07-30T02:08:04;5.55;;;2.80;;
40993;SDS011;26722;43.212;27.932;2023-07-30T02:10:29;5.88;;;2.83;;
40993;SDS011;26722;43.212;27.932;2023-07-30T02:12:54;6.82;;;3.30;;
40993;SDS011;26722;43.212;27.932;2023-07-30T02:15:20;6.47;;;3.08;;
40993;SDS011;26722;43.212;27.932;2023-07-30T02:17:45;9.63;;;3.00;;
40993;SDS011;26722;43.212;27.932;2023-07-30T02:20:11;6.50;;;2.88;;
40993;SDS011;26722;43.212;27.932;2023-07-30T02:22:36;6.03;;;2.85;;
40993;SDS011;26722;43.212;27.932;2023-07-30T02:25:02;6.78;;;2.95;;
40993;SDS011;26722;43.212;27.932;2023-07-30T02:27:27;6.18;;;2.92;;
40993;SDS011;26722;43.212;27.932;2023-07-30T02:29:52;5.72;;;3.00;;
40993;SDS011;26722;43.212;27.932;2023-07-30T02:32:18;5.55;;;2.95;;
40993;SDS011;26722;43.212;27.932;2023-07-30T02:34:43;5.03;;;2.70;;
40993;SDS011;26722;43.212;27.932;2023-07-30T02:37:09;4.40;;;3.05;;
40993;SDS011;26722;43.212;27.932;2023-07-30T02:39:34;7.13;;;3.22;;
40993;SDS011;26722;43.212;27.932;2023-07-30T02:41:59;5.63;;;2.78;;
40993;SDS011;26722;43.212;27.932;2023-07-30T02:44:25;5.97;;;3.00;;
40993;SDS011;26722;43.212;27.932;2023-07-30T02:46:50;7.65;;;3.25;;
40993;SDS011;26722;43.212;27.932;2023-07-30T02:49:16;4.57;;;3.05;;
40993;SDS011;26722;43.212;27.932;2023-07-30T02:51:41;9.15;;;3.13;;
40993;SDS011;26722;43.212;27.932;2023-07-30T02:54:08;9.02;;;3.28;;
40993;SDS011;26722;43.212;27.932;2023-07-30T02:56:34;3.92;;;2.90;;
40993;SDS011;26722;43.212;27.932;2023-07-30T02:59:00;7.35;;;2.90;;
40993;SDS011;26722;43.212;27.932;2023-07-30T03:01:26;6.28;;;2.90;;
40993;SDS011;26722;43.212;27.932;2023-07-30T03:03:51;5.18;;;3.00;;
40993;SDS011;26722;43.212;27.932;2023-07-30T03:06:17;7.68;;;3.17;;
40993;SDS011;26722;43.212;27.932;2023-07-30T03:08:42;11.82;;;3.15;;
40993;SDS011;26722;43.212;27.932;2023-07-30T03:11:08;6.72;;;3.40;;
40993;SDS011;26722;43.212;27.932;2023-07-30T03:13:34;7.00;;;3.33;;
40993;SDS011;26722;43.212;27.932;2023-07-30T03:15:59;6.53;;;2.90;;
40993;SDS011;26722;43.212;27.932;2023-07-30T03:18:25;6.28;;;3.45;;
40993;SDS011;26722;43.212;27.932;2023-07-30T03:20:50;7.47;;;2.88;;
40993;SDS011;26722;43.212;27.932;2023-07-30T03:23:16;6.47;;;2.90;;
40993;SDS011;26722;43.212;27.932;2023-07-30T03:25:41;6.90;;;3.75;;
40993;SDS011;26722;43.212;27.932;2023-07-30T03:28:07;9.38;;;3.50;;
40993;SDS011;26722;43.212;27.932;2023-07-30T03:30:32;8.68;;;3.47;;
40993;SDS011;26722;43.212;27.932;2023-07-30T03:32:58;7.72;;;3.63;;
40993;SDS011;26722;43.212;27.932;2023-07-30T03:35:23;7.28;;;3.30;;
40993;SDS011;26722;43.212;27.932;2023-07-30T03:37:48;7.00;;;3.50;;
40993;SDS011;26722;43.212;27.932;2023-07-30T03:40:14;9.63;;;3.60;;
40993;SDS011;26722;43.212;27.932;2023-07-30T03:42:39;9.68;;;2.90;;
40993;SDS011;26722;43.212;27.932;2023-07-30T03:45:05;11.27;;;2.70;;
40993;SDS011;26722;43.212;27.932;2023-07-30T03:47:31;8.50;;;2.63;;
40993;SDS011;26722;43.212;27.932;2023-07-30T03:49:56;11.48;;;3.40;;
40993;SDS011;26722;43.212;27.932;2023-07-30T03:52:22;11.05;;;3.38;;
40993;SDS011;26722;43.212;27.932;2023-07-30T03:54:47;11.57;;;3.50;;
40993;SDS011;26722;43.212;27.932;2023-07-30T03:57:12;5.65;;;3.05;;
40993;SDS011;26722;43.212;27.932;2023-07-30T03:59:38;9.27;;;2.80;;
40993;SDS011;26722;43.212;27.932;2023-07-30T04:02:03;8.00;;;2.70;;
40993;SDS011;26722;43.212;27.932;2023-07-30T04:04:29;9.02;;;3.05;;
40993;SDS011;26722;43.212;27.932;2023-07-30T04:06:55;5.85;;;2.45;;
40993;SDS011;26722;43.212;27.932;2023-07-30T04:09:20;12.38;;;2.65;;
40993;SDS011;26722;43.212;27.932;2023-07-30T04:11:45;8.70;;;2.78;;
40993;SDS011;26722;43.212;27.932;2023-07-30T04:14:11;11.00;;;2.50;;
40993;SDS011;26722;43.212;27.932;2023-07-30T04:16:36;4.88;;;2.50;;
40993;SDS011;26722;43.212;27.932;2023-07-30T04:19:02;7.95;;;2.65;;
40993;SDS011;26722;43.212;27.932;2023-07-30T04:21:27;8.10;;;2.25;;
40993;SDS011;26722;43.212;27.932;2023-07-30T04:23:53;7.53;;;2.30;;
40993;SDS011;26722;43.212;27.932;2023-07-30T04:26:18;7.72;;;2.35;;
40993;SDS011;26722;43.212;27.932;2023-07-30T04:28:43;4.97;;;2.10;;
40993;SDS011;26722;43.212;27.932;2023-07-30T04:31:09;6.60;;;2.35;;
40993;SDS011;26722;43.212;27.932;2023-07-30T04:33:34;3.25;;;1.50;;
40993;SDS011;26722;43.212;27.932;2023-07-30T04:36:00;4.78;;;1.50;;
40993;SDS011;26722;43.212;27.932;2023-07-30T04:38:25;2.65;;;1.60;;
40993;SDS011;26722;43.212;27.932;2023-07-30T04:40:51;3.88;;;1.65;;
40993;SDS011;26722;43.212;27.932;2023-07-30T04:43:16;4.00;;;1.75;;
40993;SDS011;26722;43.212;27.932;2023-07-30T04:45:42;4.75;;;1.80;;
40993;SDS011;26722;43.212;27.932;2023-07-30T04:48:08;4.75;;;2.28;;
40993;SDS011;26722;43.212;27.932;2023-07-30T04:50:33;3.80;;;1.85;;
40993;SDS011;26722;43.212;27.932;2023-07-30T04:52:58;2.35;;;1.50;;
40993;SDS011;26722;43.212;27.932;2023-07-30T04:55:24;3.08;;;1.70;;
40993;SDS011;26722;43.212;27.932;2023-07-30T04:57:50;3.53;;;1.95;;
40993;SDS011;26722;43.212;27.932;2023-07-30T05:00:15;3.25;;;1.80;;
40993;SDS011;26722;43.212;27.932;2023-07-30T05:02:41;5.05;;;1.90;;
40993;SDS011;26722;43.212;27.932;2023-07-30T05:05:07;2.90;;;1.98;;
40993;SDS011;26722;43.212;27.932;2023-07-30T05:07:33;3.88;;;1.83;;
40993;SDS011;26722;43.212;27.932;2023-07-30T05:09:58;6.93;;;2.22;;
40993;SDS011;26722;43.212;27.932;2023-07-30T05:12:23;11.55;;;2.30;;
40993;SDS011;26722;43.212;27.932;2023-07-30T05:14:49;9.88;;;2.50;;
40993;SDS011;26722;43.212;27.932;2023-07-30T05:17:14;6.93;;;2.28;;
40993;SDS011;26722;43.212;27.932;2023-07-30T05:19:40;6.30;;;2.30;;
40993;SDS011;26722;43.212;27.932;2023-07-30T05:22:05;5.68;;;2.10;;
40993;SDS011;26722;43.212;27.932;2023-07-30T05:24:32;5.63;;;2.38;;
40993;SDS011;26722;43.212;27.932;2023-07-30T05:26:58;5.38;;;2.10;;
40993;SDS011;26722;43.212;27.932;2023-07-30T05:29:23;15.48;;;2.67;;
40993;SDS011;26722;43.212;27.932;2023-07-30T05:31:49;7.15;;;2.72;;
40993;SDS011;26722;43.212;27.932;2023-07-30T05:34:14;7.13;;;2.38;;
40993;SDS011;26722;43.212;27.932;2023-07-30T05:36:39;4.07;;;2.42;;
40993;SDS011;26722;43.212;27.932;2023-07-30T05:39:05;5.85;;;2.35;;
40993;SDS011;26722;43.212;27.932;2023-07-30T05:41:30;3.60;;;2.10;;
40993;SDS011;26722;43.212;27.932;2023-07-30T05:43:56;5.85;;;2.20;;
40993;SDS011;26722;43.212;27.932;2023-07-30T05:46:21;3.70;;;2.15;;
40993;SDS011;26722;43.212;27.932;2023-07-30T05:48:47;2.83;;;1.83;;
40993;SDS011;26722;43.212;27.932;2023-07-30T05:51:12;3.88;;;2.03;;
40993;SDS011;26722;43.212;27.932;2023-07-30T05:53:37;6.07;;;1.80;;
40993;SDS011;26722;43.212;27.932;2023-07-30T05:56:03;3.78;;;2.10;;
40993;SDS011;26722;43.212;27.932;2023-07-30T05:58:28;2.90;;;2.03;;
40993;SDS011;26722;43.212;27.932;2023-07-30T06:00:54;3.47;;;2.08;;
40993;SDS011;26722;43.212;27.932;2023-07-30T06:03:19;6.03;;;2.10;;
40993;SDS011;26722;43.212;27.932;2023-07-30T06:05:45;2.40;;;1.90;;
40993;SDS011;26722;43.212;27.932;2023-07-30T06:08:10;4.22;;;1.92;;
40993;SDS011;26722;43.212;27.932;2023-07-30T06:10:39;6.63;;;1.90;;
40993;SDS011;26722;43.212;27.932;2023-07-30T06:13:05;5.50;;;1.70;;
40993;SDS011;26722;43.212;27.932;2023-07-30T06:15:31;2.90;;;1.90;;
40993;SDS011;26722;43.212;27.932;2023-07-30T06:17:57;4.32;;;1.63;;
40993;SDS011;26722;43.212;27.932;2023-07-30T06:20:23;2.67;;;1.60;;
40993;SDS011;26722;43.212;27.932;2023-07-30T06:22:48;5.30;;;1.80;;
40993;SDS011;26722;43.212;27.932;2023-07-30T06:25:14;5.80;;;1.73;;
40993;SDS011;26722;43.212;27.932;2023-07-30T06:27:39;6.95;;;1.60;;
40993;SDS011;26722;43.212;27.932;2023-07-30T06:30:05;2.70;;;1.45;;
40993;SDS011;26722;43.212;27.932;2023-07-30T06:32:31;2.97;;;1.70;;
40993;SDS011;26722;43.212;27.932;2023-07-30T06:34:56;4.90;;;1.42;;
40993;SDS011;26722;43.212;27.932;2023-07-30T06:37:22;5.00;;;1.70;;
40993;SDS011;26722;43.212;27.932;2023-07-30T06:39:47;3.72;;;1.52;;
40993;SDS011;26722;43.212;27.932;2023-07-30T06:42:13;3.47;;;1.80;;
40993;SDS011;26722;43.212;27.932;2023-07-30T06:44:39;2.53;;;1.58;;
40993;SDS011;26722;43.212;27.932;2023-07-30T06:47:04;5.78;;;1.80;;
40993;SDS011;26722;43.212;27.932;2023-07-30T06:49:29;5.85;;;1.77;;
40993;SDS011;26722;43.212;27.932;2023-07-30T06:51:55;3.65;;;1.65;;
40993;SDS011;26722;43.212;27.932;2023-07-30T06:54:20;6.15;;;1.95;;
40993;SDS011;26722;43.212;27.932;2023-07-30T06:56:46;2.97;;;1.77;;
40993;SDS011;26722;43.212;27.932;2023-07-30T06:59:11;6.95;;;1.75;;
40993;SDS011;26722;43.212;27.932;2023-07-30T07:01:36;4.60;;;1.60;;
40993;SDS011;26722;43.212;27.932;2023-07-30T07:04:02;2.35;;;1.58;;
40993;SDS011;26722;43.212;27.932;2023-07-30T07:06:27;2.80;;;1.70;;
40993;SDS011;26722;43.212;27.932;2023-07-30T07:08:53;5.20;;;1.70;;
40993;SDS011;26722;43.212;27.932;2023-07-30T07:11:18;7.13;;;1.52;;
40993;SDS011;26722;43.212;27.932;2023-07-30T07:13:44;5.82;;;1.70;;
40993;SDS011;26722;43.212;27.932;2023-07-30T07:16:09;4.22;;;1.98;;
40993;SDS011;26722;43.212;27.932;2023-07-30T07:18:35;7.65;;;1.92;;
40993;SDS011;26722;43.212;27.932;2023-07-30T07:21:00;2.88;;;1.70;;
40993;SDS011;26722;43.212;27.932;2023-07-30T07:23:26;3.55;;;2.03;;
40993;SDS011;26722;43.212;27.932;2023-07-30T07:25:51;2.20;;;1.75;;
40993;SDS011;26722;43.212;27.932;2023-07-30T07:28:17;5.60;;;1.65;;
40993;SDS011;26722;43.212;27.932;2023-07-30T07:30:45;3.95;;;1.80;;
40993;SDS011;26722;43.212;27.932;2023-07-30T07:33:10;3.47;;;1.90;;
40993;SDS011;26722;43.212;27.932;2023-07-30T07:35:38;4.65;;;1.63;;
40993;SDS011;26722;43.212;27.932;2023-07-30T07:38:04;4.50;;;1.70;;
40993;SDS011;26722;43.212;27.932;2023-07-30T07:40:29;5.45;;;1.98;;
40993;SDS011;26722;43.212;27.932;2023-07-30T07:42:55;3.33;;;1.65;;
40993;SDS011;26722;43.212;27.932;2023-07-30T07:45:21;2.40;;;1.52;;
40993;SDS011;26722;43.212;27.932;2023-07-30T07:47:46;2.25;;;1.77;;
40993;SDS011;26722;43.212;27.932;2023-07-30T07:50:11;2.53;;;1.65;;
40993;SDS011;26722;43.212;27.932;2023-07-30T07:52:37;3.88;;;1.73;;
40993;SDS011;26722;43.212;27.932;2023-07-30T07:55:03;4.55;;;1.73;;
40993;SDS011;26722;43.212;27.932;2023-07-30T07:57:29;4.20;;;1.90;;
40993;SDS011;26722;43.212;27.932;2023-07-30T07:59:55;4.38;;;1.80;;
40993;SDS011;26722;43.212;27.932;2023-07-30T08:02:21;4.68;;;1.75;;
40993;SDS011;26722;43.212;27.932;2023-07-30T08:04:46;2.05;;;1.75;;
40993;SDS011;26722;43.212;27.932;2023-07-30T08:07:12;3.15;;;1.70;;
40993;SDS011;26722;43.212;27.932;2023-07-30T08:09:38;4.15;;;1.70;;
40993;SDS011;26722;43.212;27.932;2023-07-30T08:12:03;4.15;;;1.73;;
40993;SDS011;26722;43.212;27.932;2023-07-30T08:14:29;4.60;;;1.50;;
40993;SDS011;26722;43.212;27.932;2023-07-30T08:16:55;3.13;;;1.52;;
40993;SDS011;26722;43.212;27.932;2023-07-30T08:19:20;4.68;;;1.70;;
40993;SDS011;26722;43.212;27.932;2023-07-30T08:21:46;7.60;;;1.88;;
40993;SDS011;26722;43.212;27.932;2023-07-30T08:24:11;4.00;;;1.83;;
40993;SDS011;26722;43.212;27.932;2023-07-30T08:26:37;4.70;;;1.55;;
40993;SDS011;26722;43.212;27.932;2023-07-30T08:29:02;2.53;;;1.73;;
40993;SDS011;26722;43.212;27.932;2023-07-30T08:31:28;8.35;;;1.98;;
40993;SDS011;26722;43.212;27.932;2023-07-30T08:33:53;3.92;;;1.75;;
40993;SDS011;26722;43.212;27.932;2023-07-30T08:36:19;4.35;;;1.90;;
40993;SDS011;26722;43.212;27.932;2023-07-30T08:38:44;4.13;;;1.75;;
40993;SDS011;26722;43.212;27.932;2023-07-30T08:41:10;6.90;;;1.90;;
40993;SDS011;26722;43.212;27.932;2023-07-30T08:43:35;3.20;;;1.85;;
40993;SDS011;26722;43.212;27.932;2023-07-30T08:46:01;3.03;;;1.73;;
40993;SDS011;26722;43.212;27.932;2023-07-30T08:48:27;3.13;;;1.77;;
40993;SDS011;26722;43.212;27.932;2023-07-30T08:50:54;7.40;;;1.95;;
40993;SDS011;26722;43.212;27.932;2023-07-30T08:53:22;5.68;;;1.80;;
40993;SDS011;26722;43.212;27.932;2023-07-30T08:55:53;5.70;;;1.90;;
40993;SDS011;26722;43.212;27.932;2023-07-30T08:58:19;2.70;;;1.60;;
40993;SDS011;26722;43.212;27.932;2023-07-30T09:00:45;5.55;;;2.03;;
40993;SDS011;26722;43.212;27.932;2023-07-30T09:03:15;5.75;;;1.83;;
40993;SDS011;26722;43.212;27.932;2023-07-30T09:05:42;3.33;;;1.95;;
40993;SDS011;26722;43.212;27.932;2023-07-30T09:08:08;3.50;;;1.70;;
40993;SDS011;26722;43.212;27.932;2023-07-30T09:10:34;6.13;;;2.13;;
40993;SDS011;26722;43.212;27.932;2023-07-30T09:13:01;5.30;;;2.08;;
40993;SDS011;26722;43.212;27.932;2023-07-30T09:15:34;3.00;;;2.15;;
40993;SDS011;26722;43.212;27.932;2023-07-30T09:18:02;6.13;;;1.95;;
40993;SDS011;26722;43.212;27.932;2023-07-30T09:20:30;3.95;;;1.90;;
40993;SDS011;26722;43.212;27.932;2023-07-30T09:23:06;4.13;;;1.73;;
40993;SDS011;26722;43.212;27.932;2023-07-30T09:25:32;4.43;;;1.80;;
40993;SDS011;26722;43.212;27.932;2023-07-30T09:27:58;3.60;;;2.00;;
40993;SDS011;26722;43.212;27.932;2023-07-30T09:30:24;7.40;;;2.03;;
40993;SDS011;26722;43.212;27.932;2023-07-30T09:32:51;5.70;;;2.40;;
40993;SDS011;26722;43.212;27.932;2023-07-30T09:35:18;3.30;;;1.75;;
40993;SDS011;26722;43.212;27.932;2023-07-30T09:37:43;4.57;;;2.00;;
40993;SDS011;26722;43.212;27.932;2023-07-30T09:40:10;2.72;;;1.90;;
40993;SDS011;26722;43.212;27.932;2023-07-30T09:42:38;2.75;;;1.73;;
40993;SDS011;26722;43.212;27.932;2023-07-30T09:45:07;4.07;;;1.80;;
40993;SDS011;26722;43.212;27.932;2023-07-30T09:47:44;7.00;;;2.08;;
40993;SDS011;26722;43.212;27.932;2023-07-30T09:50:11;3.13;;;1.90;;
40993;SDS011;26722;43.212;27.932;2023-07-30T09:52:37;6.95;;;2.00;;
40993;SDS011;26722;43.212;27.932;2023-07-30T09:55:03;6.50;;;1.80;;
40993;SDS011;26722;43.212;27.932;2023-07-30T09:57:32;3.58;;;1.55;;
40993;SDS011;26722;43.212;27.932;2023-07-30T09:59:58;3.28;;;1.83;;
40993;SDS011;26722;43.212;27.932;2023-07-30T10:02:24;2.55;;;1.60;;
40993;SDS011;26722;43.212;27.932;2023-07-30T10:04:50;3.78;;;1.67;;
40993;SDS011;26722;43.212;27.932;2023-07-30T10:07:19;7.03;;;1.85;;
40993;SDS011;26722;43.212;27.932;2023-07-30T10:09:47;4.70;;;1.90;;
40993;SDS011;26722;43.212;27.932;2023-07-30T10:12:16;5.38;;;2.20;;
40993;SDS011;26722;43.212;27.932;2023-07-30T10:14:48;4.47;;;1.95;;
40993;SDS011;26722;43.212;27.932;2023-07-30T10:17:14;4.50;;;1.70;;
40993;SDS011;26722;43.212;27.932;2023-07-30T10:19:42;4.80;;;1.90;;
40993;SDS011;26722;43.212;27.932;2023-07-30T10:24:40;5.07;;;2.50;;
40993;SDS011;26722;43.212;27.932;2023-07-30T10:27:22;7.28;;;2.45;;
40993;SDS011;26722;43.212;27.932;2023-07-30T10:29:49;5.30;;;2.40;;
40993;SDS011;26722;43.212;27.932;2023-07-30T10:32:41;3.67;;;1.80;;
40993;SDS011;26722;43.212;27.932;2023-07-30T10:35:07;3.20;;;2.00;;
40993;SDS011;26722;43.212;27.932;2023-07-30T10:37:33;3.45;;;1.75;;
40993;SDS011;26722;43.212;27.932;2023-07-30T10:39:59;4.28;;;1.90;;
40993;SDS011;26722;43.212;27.932;2023-07-30T10:42:32;4.50;;;2.00;;
40993;SDS011;26722;43.212;27.932;2023-07-30T10:47:26;3.22;;;1.80;;
40993;SDS011;26722;43.212;27.932;2023-07-30T10:49:52;2.47;;;1.95;;
40993;SDS011;26722;43.212;27.932;2023-07-30T10:52:19;4.85;;;1.73;;
40993;SDS011;26722;43.212;27.932;2023-07-30T10:54:48;3.88;;;1.65;;
40993;SDS011;26722;43.212;27.932;2023-07-30T10:57:14;5.10;;;1.90;;
40993;SDS011;26722;43.212;27.932;2023-07-30T10:59:39;5.25;;;2.05;;
40993;SDS011;26722;43.212;27.932;2023-07-30T11:02:06;4.80;;;1.95;;
40993;SDS011;26722;43.212;27.932;2023-07-30T11:04:34;3.67;;;1.50;;
40993;SDS011;26722;43.212;27.932;2023-07-30T11:07:00;3.53;;;1.60;;
40993;SDS011;26722;43.212;27.932;2023-07-30T11:09:26;3.60;;;2.17;;
40993;SDS011;26722;43.212;27.932;2023-07-30T11:11:53;5.57;;;1.90;;
40993;SDS011;26722;43.212;27.932;2023-07-30T11:14:23;5.10;;;1.90;;
40993;SDS011;26722;43.212;27.932;2023-07-30T11:16:53;4.35;;;1.58;;
40993;SDS011;26722;43.212;27.932;2023-07-30T11:19:23;4.72;;;1.85;;
40993;SDS011;26722;43.212;27.932;2023-07-30T11:21:50;3.70;;;1.85;;
40993;SDS011;26722;43.212;27.932;2023-07-30T11:24:16;3.60;;;1.70;;
40993;SDS011;26722;43.212;27.932;2023-07-30T11:26:42;3.35;;;1.50;;
40993;SDS011;26722;43.212;27.932;2023-07-30T11:29:15;5.38;;;1.88;;
40993;SDS011;26722;43.212;27.932;2023-07-30T11:31:42;3.75;;;1.85;;
40993;SDS011;26722;43.212;27.932;2023-07-30T11:34:08;3.33;;;1.90;;
40993;SDS011;26722;43.212;27.932;2023-07-30T11:36:34;6.85;;;1.83;;
40993;SDS011;26722;43.212;27.932;2023-07-30T11:39:00;5.07;;;2.20;;
40993;SDS011;26722;43.212;27.932;2023-07-30T11:41:26;3.78;;;1.90;;
40993;SDS011;26722;43.212;27.932;2023-07-30T11:43:53;4.40;;;1.80;;
40993;SDS011;26722;43.212;27.932;2023-07-30T11:46:19;5.40;;;1.80;;
40993;SDS011;26722;43.212;27.932;2023-07-30T11:48:48;6.93;;;2.00;;
40993;SDS011;26722;43.212;27.932;2023-07-30T11:51:22;5.03;;;1.83;;
40993;SDS011;26722;43.212;27.932;2023-07-30T11:58:48;4.03;;;1.67;;
40993;SDS011;26722;43.212;27.932;2023-07-30T12:01:15;3.45;;;1.50;;
40993;SDS011;26722;43.212;27.932;2023-07-30T12:03:41;3.00;;;1.80;;
40993;SDS011;26722;43.212;27.932;2023-07-30T12:06:07;2.97;;;1.70;;
40993;SDS011;26722;43.212;27.932;2023-07-30T12:08:34;2.97;;;1.77;;
40993;SDS011;26722;43.212;27.932;2023-07-30T12:11:04;6.78;;;1.63;;
40993;SDS011;26722;43.212;27.932;2023-07-30T12:13:31;3.38;;;1.40;;
40993;SDS011;26722;43.212;27.932;2023-07-30T12:15:56;2.50;;;1.50;;
40993;SDS011;26722;43.212;27.932;2023-07-30T12:18:23;3.22;;;1.38;;
40993;SDS011;26722;43.212;27.932;2023-07-30T12:20:49;3.10;;;1.90;;
40993;SDS011;26722;43.212;27.932;2023-07-30T12:23:18;3.72;;;1.60;;
40993;SDS011;26722;43.212;27.932;2023-07-30T12:25:44;8.57;;;2.13;;
40993;SDS011;26722;43.212;27.932;2023-07-30T12:28:10;5.53;;;1.80;;
40993;SDS011;26722;43.212;27.932;2023-07-30T12:30:36;3.65;;;2.00;;
40993;SDS011;26722;43.212;27.932;2023-07-30T12:33:05;3.70;;;1.70;;
40993;SDS011;26722;43.212;27.932;2023-07-30T12:35:31;2.45;;;1.45;;
40993;SDS011;26722;43.212;27.932;2023-07-30T12:37:57;2.83;;;1.40;;
40993;SDS011;26722;43.212;27.932;2023-07-30T12:40:23;4.53;;;1.58;;
40993;SDS011;26722;43.212;27.932;2023-07-30T12:42:48;2.58;;;1.70;;
40993;SDS011;26722;43.212;27.932;2023-07-30T12:45:14;7.72;;;1.60;;
40993;SDS011;26722;43.212;27.932;2023-07-30T12:47:40;7.65;;;1.77;;
40993;SDS011;26722;43.212;27.932;2023-07-30T12:50:06;3.65;;;1.60;;
40993;SDS011;26722;43.212;27.932;2023-07-30T12:52:32;3.35;;;1.60;;
40993;SDS011;26722;43.212;27.932;2023-07-30T12:54:59;3.58;;;1.40;;
40993;SDS011;26722;43.212;27.932;2023-07-30T12:57:25;5.15;;;1.60;;
40993;SDS011;26722;43.212;27.932;2023-07-30T12:59:50;3.60;;;1.50;;
40993;SDS011;26722;43.212;27.932;2023-07-30T13:02:15;3.15;;;1.70;;
40993;SDS011;26722;43.212;27.932;2023-07-30T13:04:41;6.40;;;1.50;;
40993;SDS011;26722;43.212;27.932;2023-07-30T13:07:06;4.70;;;1.63;;
40993;SDS011;26722;43.212;27.932;2023-07-30T13:09:32;5.22;;;1.80;;
40993;SDS011;26722;43.212;27.932;2023-07-30T13:11:57;3.35;;;1.60;;
40993;SDS011;26722;43.212;27.932;2023-07-30T13:14:23;2.55;;;1.60;;
40993;SDS011;26722;43.212;27.932;2023-07-30T13:16:48;5.53;;;1.70;;
40993;SDS011;26722;43.212;27.932;2023-07-30T13:19:14;4.40;;;1.50;;
40993;SDS011;26722;43.212;27.932;2023-07-30T13:21:39;2.83;;;1.70;;
40993;SDS011;26722;43.212;27.932;2023-07-30T13:24:05;4.88;;;1.80;;
40993;SDS011;26722;43.212;27.932;2023-07-30T13:26:30;5.50;;;1.50;;
40993;SDS011;26722;43.212;27.932;2023-07-30T13:28:55;2.58;;;1.60;;
40993;SDS011;26722;43.212;27.932;2023-07-30T13:31:21;5.10;;;1.73;;
40993;SDS011;26722;43.212;27.932;2023-07-30T13:33:46;3.15;;;1.65;;
40993;SDS011;26722;43.212;27.932;2023-07-30T13:36:13;4.25;;;2.00;;
40993;SDS011;26722;43.212;27.932;2023-07-30T13:38:39;2.20;;;1.50;;
40993;SDS011;26722;43.212;27.932;2023-07-30T13:41:05;2.88;;;1.52;;
40993;SDS011;26722;43.212;27.932;2023-07-30T13:43:31;3.22;;;1.73;;
40993;SDS011;26722;43.212;27.932;2023-07-30T13:45:57;6.85;;;2.05;;
40993;SDS011;26722;43.212;27.932;2023-07-30T13:48:23;3.72;;;2.00;;
40993;SDS011;26722;43.212;27.932;2023-07-30T13:50:50;5.25;;;2.33;;
40993;SDS011;26722;43.212;27.932;2023-07-30T13:53:16;5.25;;;2.00;;
40993;SDS011;26722;43.212;27.932;2023-07-30T13:55:42;4.00;;;1.60;;
40993;SDS011;26722;43.212;27.932;2023-07-30T13:58:08;7.18;;;1.90;;
40993;SDS011;26722;43.212;27.932;2023-07-30T14:00:33;5.68;;;1.80;;
40993;SDS011;26722;43.212;27.932;2023-07-30T14:02:59;2.75;;;1.70;;
40993;SDS011;26722;43.212;27.932;2023-07-30T14:05:24;2.47;;;1.55;;
40993;SDS011;26722;43.212;27.932;2023-07-30T14:07:49;9.15;;;1.73;;
40993;SDS011;26722;43.212;27.932;2023-07-30T14:10:18;7.45;;;2.20;;
40993;SDS011;26722;43.212;27.932;2023-07-30T14:12:44;4.32;;;1.80;;
40993;SDS011;26722;43.212;27.932;2023-07-30T14:15:09;3.10;;;1.88;;
40993;SDS011;26722;43.212;27.932;2023-07-30T14:17:35;6.38;;;2.00;;
40993;SDS011;26722;43.212;27.932;2023-07-30T14:20:00;5.82;;;1.65;;
40993;SDS011;26722;43.212;27.932;2023-07-30T14:22:26;4.38;;;1.60;;
40993;SDS011;26722;43.212;27.932;2023-07-30T14:24:51;4.38;;;1.63;;
40993;SDS011;26722;43.212;27.932;2023-07-30T14:27:17;7.13;;;1.52;;
40993;SDS011;26722;43.212;27.932;2023-07-30T14:29:42;3.53;;;1.75;;
40993;SDS011;26722;43.212;27.932;2023-07-30T14:32:08;7.40;;;1.50;;
40993;SDS011;26722;43.212;27.932;2023-07-30T14:34:33;5.32;;;1.80;;
40993;SDS011;26722;43.212;27.932;2023-07-30T14:36:59;5.78;;;1.92;;